createdAt,value
2017-12-13T00:00:46.926Z,11.63
2017-12-13T00:03:14.345Z,22.58
2017-12-13T00:05:41.773Z,17.10
2017-12-13T00:08:09.198Z,17.73
2017-12-13T00:10:36.619Z,16.70
2017-12-13T00:13:04.062Z,16.48
2017-12-13T00:15:31.474Z,19.80
2017-12-13T00:17:58.894Z,17.15
2017-12-13T00:20:26.336Z,17.62
2017-12-13T00:22:53.756Z,21.27
2017-12-13T00:25:21.176Z,29.27
2017-12-13T00:27:48.628Z,24.55
2017-12-13T00:30:16.034Z,18.75
2017-12-13T00:32:43.459Z,31.65
2017-12-13T00:35:10.901Z,33.28
2017-12-13T00:37:38.323Z,35.17
2017-12-13T00:40:05.746Z,41.92
2017-12-13T00:42:33.175Z,24.10
2017-12-13T00:45:00.595Z,17.83
2017-12-13T00:47:28.019Z,19.08
2017-12-13T00:49:55.456Z,41.30
2017-12-13T00:52:22.876Z,27.65
2017-12-13T00:54:50.301Z,32.78
2017-12-13T00:57:17.727Z,22.10
2017-12-13T00:59:45.143Z,20.60
2017-12-13T01:02:12.563Z,20.10
2017-12-13T01:04:39.995Z,16.45
2017-12-13T01:07:07.420Z,14.60
2017-12-13T01:09:34.840Z,17.87
2017-12-13T01:12:02.266Z,11.48
2017-12-13T01:14:29.695Z,14.60
2017-12-13T01:16:57.106Z,18.27
2017-12-13T01:19:24.540Z,23.95
2017-12-13T01:21:51.964Z,23.85
2017-12-13T01:24:19.388Z,21.95
2017-12-13T01:26:46.814Z,18.92
2017-12-13T01:29:14.236Z,15.82
2017-12-13T01:31:41.654Z,13.90
2017-12-13T01:34:09.078Z,17.62
2017-12-13T01:36:36.481Z,15.85
2017-12-13T01:39:03.915Z,17.35
2017-12-13T01:41:31.345Z,19.00
2017-12-13T01:43:58.755Z,13.52
2017-12-13T01:46:26.179Z,12.18
2017-12-13T01:48:53.611Z,12.32
2017-12-13T01:51:21.022Z,12.68
2017-12-13T01:53:48.448Z,17.62
2017-12-13T01:56:15.876Z,15.38
2017-12-13T01:58:43.290Z,10.60
2017-12-13T02:01:10.710Z,11.35
2017-12-13T02:03:38.139Z,9.85
2017-12-13T02:06:05.550Z,14.45
2017-12-13T02:08:32.975Z,16.90
2017-12-13T02:11:00.412Z,16.50
2017-12-13T02:13:27.823Z,9.57
2017-12-13T02:15:55.234Z,9.75
2017-12-13T02:18:22.667Z,17.60
2017-12-13T02:20:50.092Z,11.50
2017-12-13T02:23:17.508Z,14.38
2017-12-13T02:25:44.944Z,11.80
2017-12-13T02:28:12.366Z,11.73
2017-12-13T02:30:39.773Z,12.68
2017-12-13T02:33:07.215Z,10.18
2017-12-13T02:35:34.632Z,14.30
2017-12-13T02:38:02.057Z,14.95
2017-12-13T02:40:41.112Z,11.52
2017-12-13T02:43:08.523Z,10.13
2017-12-13T02:45:35.934Z,11.85
2017-12-13T02:48:03.458Z,11.75
2017-12-13T02:50:30.820Z,18.15
2017-12-13T02:52:58.240Z,35.58
2017-12-13T02:55:25.676Z,16.73
2017-12-13T02:57:53.090Z,16.67
2017-12-13T03:00:20.502Z,11.07
2017-12-13T03:02:47.934Z,15.80
2017-12-13T03:05:15.347Z,15.27
2017-12-13T03:07:42.763Z,10.40
2017-12-13T03:10:10.190Z,23.67
2017-12-13T03:12:37.602Z,22.30
2017-12-13T03:15:05.027Z,16.98
2017-12-13T03:17:32.461Z,21.70
2017-12-13T03:19:59.879Z,18.55
2017-12-13T03:22:27.289Z,9.50
2017-12-13T03:24:54.724Z,18.00
2017-12-13T03:27:22.134Z,13.65
2017-12-13T03:29:49.555Z,18.33
2017-12-13T03:32:16.990Z,18.75
2017-12-13T03:34:44.407Z,25.80
2017-12-13T03:37:11.813Z,16.33
2017-12-13T03:39:39.242Z,14.27
2017-12-13T03:42:06.664Z,16.20
2017-12-13T03:44:34.086Z,15.10
2017-12-13T03:47:01.507Z,9.82
2017-12-13T03:49:28.935Z,11.45
2017-12-13T03:51:56.354Z,18.48
2017-12-13T03:54:23.792Z,14.00
2017-12-13T03:56:51.218Z,22.52
2017-12-13T03:59:18.634Z,12.45
2017-12-13T04:01:46.067Z,19.12
2017-12-13T04:04:13.487Z,17.08
2017-12-13T04:06:40.908Z,11.98
2017-12-13T04:09:08.335Z,15.68
2017-12-13T04:11:35.755Z,12.40
2017-12-13T04:14:03.170Z,10.35
2017-12-13T04:16:30.595Z,9.75
2017-12-13T04:18:58.011Z,10.73
2017-12-13T04:21:25.471Z,9.45
2017-12-13T04:23:52.851Z,14.32
2017-12-13T04:26:20.282Z,14.38
2017-12-13T04:28:47.703Z,10.55
2017-12-13T04:31:15.126Z,8.07
2017-12-13T04:33:42.547Z,11.12
2017-12-13T04:36:09.962Z,18.17
2017-12-13T04:38:37.391Z,9.85
2017-12-13T04:41:04.811Z,16.73
2017-12-13T04:43:32.223Z,10.95
2017-12-13T04:45:59.660Z,15.40
2017-12-13T04:48:27.087Z,16.75
2017-12-13T04:50:54.511Z,8.88
2017-12-13T04:53:21.942Z,9.98
2017-12-13T04:55:49.375Z,10.38
2017-12-13T04:58:16.786Z,13.48
2017-12-13T05:00:44.218Z,12.52
2017-12-13T05:03:11.651Z,10.05
2017-12-13T05:05:39.058Z,9.32
2017-12-13T05:08:06.489Z,7.32
2017-12-13T05:10:33.903Z,16.33
2017-12-13T05:13:01.317Z,7.53
2017-12-13T05:15:28.743Z,19.40
2017-12-13T05:17:56.180Z,9.65
2017-12-13T05:20:23.585Z,9.68
2017-12-13T05:22:51.022Z,18.10
2017-12-13T05:25:18.439Z,9.65
2017-12-13T05:27:45.857Z,12.48
2017-12-13T05:30:13.283Z,11.40
2017-12-13T05:32:40.707Z,13.30
2017-12-13T05:35:08.120Z,14.70
2017-12-13T05:37:35.553Z,11.50
2017-12-13T05:40:02.962Z,20.85
2017-12-13T05:42:30.378Z,31.95
2017-12-13T05:44:57.819Z,20.42
2017-12-13T05:47:25.232Z,13.05
2017-12-13T05:49:52.650Z,24.25
2017-12-13T05:52:20.083Z,14.98
2017-12-13T05:54:47.502Z,15.45
2017-12-13T05:57:14.919Z,18.25
2017-12-13T05:59:42.363Z,17.37
2017-12-13T06:02:09.793Z,25.92
2017-12-13T06:04:37.212Z,14.15
2017-12-13T06:07:04.630Z,13.90
2017-12-13T06:09:32.043Z,10.95
2017-12-13T06:11:59.455Z,10.52
2017-12-13T06:14:26.883Z,14.13
2017-12-13T06:16:54.296Z,16.30
2017-12-13T06:19:21.703Z,7.87
2017-12-13T06:21:49.131Z,12.20
2017-12-13T06:24:16.546Z,12.02
2017-12-13T06:26:43.958Z,13.45
2017-12-13T06:29:11.391Z,13.85
2017-12-13T06:31:38.798Z,14.02
2017-12-13T06:34:06.211Z,12.20
2017-12-13T06:36:33.648Z,9.20
2017-12-13T06:39:01.083Z,19.58
2017-12-13T06:41:28.491Z,12.48
2017-12-13T06:43:55.915Z,15.43
2017-12-13T06:46:23.335Z,17.27
2017-12-13T06:48:50.746Z,13.05
2017-12-13T06:51:18.174Z,10.85
2017-12-13T06:53:45.611Z,17.00
2017-12-13T06:56:13.019Z,13.27
2017-12-13T06:58:40.459Z,15.95
2017-12-13T07:01:07.880Z,16.87
2017-12-13T07:03:35.385Z,17.37
2017-12-13T07:06:02.811Z,17.90
2017-12-13T07:08:30.225Z,13.35
2017-12-13T07:10:57.654Z,17.37
2017-12-13T07:13:25.070Z,17.23
2017-12-13T07:15:52.482Z,18.55
2017-12-13T07:18:19.906Z,23.98
2017-12-13T07:20:47.329Z,15.05
2017-12-13T07:23:14.746Z,26.85
2017-12-13T07:25:42.150Z,31.70
2017-12-13T07:28:09.574Z,13.43
2017-12-13T07:30:36.999Z,20.95
2017-12-13T07:33:04.410Z,26.10
2017-12-13T07:35:31.838Z,33.88
2017-12-13T07:37:59.257Z,22.13
2017-12-13T07:40:26.676Z,18.55
2017-12-13T07:42:54.112Z,19.20
2017-12-13T07:45:21.518Z,22.42
2017-12-13T07:47:48.939Z,16.67
2017-12-13T07:50:16.371Z,16.52
2017-12-13T07:52:43.791Z,16.05
2017-12-13T07:55:11.204Z,23.30
2017-12-13T07:57:38.629Z,22.62
2017-12-13T08:00:06.055Z,21.10
2017-12-13T08:02:33.479Z,24.23
2017-12-13T08:05:00.911Z,29.08
2017-12-13T08:07:28.289Z,25.98
2017-12-13T08:09:55.759Z,17.37
2017-12-13T08:12:23.197Z,30.95
2017-12-13T08:14:50.610Z,27.90
2017-12-13T08:17:18.047Z,25.00
2017-12-13T08:19:45.472Z,37.53
2017-12-13T08:22:12.883Z,22.98
2017-12-13T08:24:40.318Z,26.87
2017-12-13T08:27:07.744Z,22.15
2017-12-13T08:29:35.176Z,19.52
2017-12-13T08:32:02.607Z,22.10
2017-12-13T08:34:30.031Z,20.50
2017-12-13T08:36:57.462Z,28.00
2017-12-13T08:39:26.192Z,29.25
2017-12-13T08:41:53.656Z,25.08
2017-12-13T08:44:21.096Z,24.80
2017-12-13T08:46:48.519Z,21.75
2017-12-13T08:49:15.930Z,14.48
2017-12-13T08:51:43.366Z,13.68
2017-12-13T08:54:10.783Z,26.20
2017-12-13T08:56:38.200Z,19.65
2017-12-13T08:59:05.639Z,13.02
2017-12-13T09:01:33.074Z,19.27
2017-12-13T09:04:00.553Z,37.40
2017-12-13T09:06:28.075Z,21.80
2017-12-13T09:08:55.490Z,12.43
2017-12-13T09:11:22.994Z,11.00
2017-12-13T09:13:50.447Z,14.98
2017-12-13T09:16:18.015Z,10.88
2017-12-13T09:18:45.488Z,10.77
2017-12-13T09:21:12.967Z,14.02
2017-12-13T09:23:40.396Z,10.43
2017-12-13T09:26:07.807Z,18.67
2017-12-13T09:28:35.232Z,12.37
2017-12-13T09:31:02.660Z,14.87
2017-12-13T09:33:30.075Z,10.80
2017-12-13T09:35:57.515Z,12.65
2017-12-13T09:38:24.935Z,12.63
2017-12-13T09:40:52.367Z,12.13
2017-12-13T09:43:19.796Z,12.73
2017-12-13T09:45:47.216Z,12.68
2017-12-13T09:48:14.647Z,11.27
2017-12-13T09:50:42.067Z,19.87
2017-12-13T09:53:09.486Z,11.82
2017-12-13T09:55:36.923Z,13.00
2017-12-13T09:58:04.343Z,13.30
2017-12-13T10:00:31.758Z,16.05
2017-12-13T10:02:59.191Z,12.20
2017-12-13T10:05:26.606Z,11.65
2017-12-13T10:07:54.030Z,10.70
2017-12-13T10:10:21.458Z,10.05
2017-12-13T10:12:48.875Z,11.93
2017-12-13T10:15:16.299Z,15.38
2017-12-13T10:17:43.731Z,12.68
2017-12-13T10:20:11.156Z,14.18
2017-12-13T10:22:38.579Z,11.65
2017-12-13T10:25:06.014Z,12.25
2017-12-13T10:27:33.933Z,11.15
2017-12-13T10:30:01.343Z,10.25
2017-12-13T10:32:28.775Z,14.68
2017-12-13T10:34:56.200Z,10.85
2017-12-13T10:37:23.633Z,10.55
2017-12-13T10:39:51.059Z,12.40
2017-12-13T10:42:18.471Z,9.32
2017-12-13T10:44:45.891Z,10.40
2017-12-13T10:47:13.331Z,9.82
2017-12-13T10:49:40.751Z,10.63
2017-12-13T10:52:08.173Z,11.38
2017-12-13T10:54:35.602Z,10.20
2017-12-13T10:57:03.024Z,12.30
2017-12-13T10:59:30.529Z,7.62
2017-12-13T11:01:57.955Z,17.05
2017-12-13T11:04:25.386Z,7.10
2017-12-13T11:06:52.803Z,7.28
2017-12-13T11:09:20.231Z,15.25
2017-12-13T11:11:47.650Z,23.42
2017-12-13T11:14:15.067Z,7.35
2017-12-13T11:16:42.499Z,13.50
2017-12-13T11:19:09.964Z,12.40
2017-12-13T11:21:37.380Z,9.57
2017-12-13T11:24:04.815Z,6.70
2017-12-13T11:26:32.232Z,14.35
2017-12-13T11:28:59.955Z,14.00
2017-12-13T11:31:27.395Z,16.02
2017-12-13T11:33:54.815Z,14.30
2017-12-13T11:36:22.260Z,10.82
2017-12-13T11:38:49.909Z,14.82
2017-12-13T11:41:17.416Z,13.13
2017-12-13T11:43:44.824Z,9.30
2017-12-13T11:46:12.277Z,10.23
2017-12-13T11:48:39.691Z,10.00
2017-12-13T11:51:07.108Z,9.27
2017-12-13T11:53:34.546Z,14.70
2017-12-13T11:56:01.984Z,15.38
2017-12-13T11:58:29.535Z,16.40
2017-12-13T12:00:56.970Z,11.18
2017-12-13T12:03:24.400Z,12.40
2017-12-13T12:05:51.846Z,17.00
2017-12-13T12:08:25.159Z,9.20
2017-12-13T12:10:52.575Z,14.27
2017-12-13T12:13:19.999Z,10.65
2017-12-13T12:15:47.426Z,35.63
2017-12-13T12:18:14.851Z,20.10
2017-12-13T12:20:42.280Z,10.30
2017-12-13T12:23:09.737Z,6.70
2017-12-13T12:25:37.151Z,11.40
2017-12-13T12:28:04.744Z,13.43
2017-12-13T12:30:32.191Z,7.82
2017-12-13T12:32:59.644Z,8.90
2017-12-13T12:35:27.071Z,16.37
2017-12-13T12:37:54.497Z,10.63
2017-12-13T12:40:21.928Z,14.57
2017-12-13T12:42:49.351Z,6.90
2017-12-13T12:45:16.793Z,6.87
2017-12-13T12:47:44.211Z,16.02
2017-12-13T12:50:11.642Z,9.80
2017-12-13T12:52:39.063Z,13.52
2017-12-13T12:55:06.499Z,6.87
2017-12-13T12:57:33.915Z,7.28
2017-12-13T13:00:01.350Z,12.07
2017-12-13T13:02:28.770Z,8.48
2017-12-13T13:04:56.194Z,10.55
2017-12-13T13:07:23.607Z,7.53
2017-12-13T13:09:51.039Z,6.18
2017-12-13T13:12:18.455Z,8.43
2017-12-13T13:14:45.926Z,9.35
2017-12-13T13:17:13.355Z,14.23
2017-12-13T13:19:40.775Z,7.00
2017-12-13T13:22:08.196Z,12.60
2017-12-13T13:24:35.636Z,15.38
2017-12-13T13:27:03.051Z,7.30
2017-12-13T13:29:30.466Z,6.05
2017-12-13T13:31:57.928Z,6.00
2017-12-13T13:34:25.371Z,8.52
2017-12-13T13:36:52.752Z,10.77
2017-12-13T13:39:20.247Z,9.23
2017-12-13T13:41:47.818Z,5.78
2017-12-13T13:44:15.252Z,9.95
2017-12-13T13:46:43.076Z,14.87
2017-12-13T13:49:10.496Z,7.97
2017-12-13T13:51:37.919Z,6.15
2017-12-13T13:54:05.367Z,7.25
2017-12-13T13:56:32.782Z,8.93
2017-12-13T13:59:00.204Z,6.57
2017-12-13T14:01:27.834Z,12.27
2017-12-13T14:03:55.254Z,14.85
2017-12-13T14:06:22.673Z,9.63
2017-12-13T14:08:50.108Z,5.93
2017-12-13T14:11:17.625Z,8.88
2017-12-13T14:13:45.868Z,5.68
2017-12-13T14:16:13.282Z,8.40
2017-12-13T14:18:40.726Z,15.65
2017-12-13T14:21:08.147Z,16.05
2017-12-13T14:23:35.568Z,7.40
2017-12-13T14:26:03.004Z,6.93
2017-12-13T14:28:30.415Z,25.05
2017-12-13T14:30:57.830Z,6.53
2017-12-13T14:33:25.268Z,23.00
2017-12-13T14:35:52.687Z,27.25
2017-12-13T14:38:20.115Z,32.42
2017-12-13T14:40:47.551Z,15.38
2017-12-13T14:43:14.967Z,14.00
2017-12-13T14:45:42.386Z,13.23
2017-12-13T14:48:09.886Z,13.65
2017-12-13T14:50:37.303Z,21.80
2017-12-13T14:53:04.737Z,14.43
2017-12-13T14:55:32.180Z,25.12
2017-12-13T14:57:59.608Z,12.23
2017-12-13T15:00:27.036Z,12.00
2017-12-13T15:02:54.480Z,25.42
2017-12-13T15:05:21.901Z,13.93
2017-12-13T15:07:49.328Z,21.95
2017-12-13T15:10:16.763Z,13.18
2017-12-13T15:12:44.176Z,25.52
2017-12-13T15:15:11.601Z,17.48
2017-12-13T15:17:39.026Z,9.27
2017-12-13T15:20:06.451Z,14.05
2017-12-13T15:22:33.873Z,17.50
2017-12-13T15:25:01.307Z,15.25
2017-12-13T15:27:28.727Z,12.27
2017-12-13T15:29:56.152Z,13.93
2017-12-13T15:32:23.589Z,14.50
2017-12-13T15:34:51.020Z,18.40
2017-12-13T15:37:18.438Z,16.37
2017-12-13T15:39:45.871Z,15.38
2017-12-13T15:42:13.296Z,17.12
2017-12-13T15:44:40.715Z,11.30
2017-12-13T15:47:08.146Z,11.85
2017-12-13T15:49:35.613Z,12.85
2017-12-13T15:52:03.018Z,17.95
2017-12-13T15:54:30.471Z,10.52
2017-12-13T15:56:57.888Z,11.88
2017-12-13T15:59:25.308Z,19.17
2017-12-13T16:01:52.785Z,27.92
2017-12-13T16:04:20.167Z,17.42
2017-12-13T16:06:47.591Z,11.55
2017-12-13T16:09:15.023Z,15.80
2017-12-13T16:11:42.443Z,16.62
2017-12-13T16:14:09.858Z,14.10
2017-12-13T16:16:37.299Z,21.50
2017-12-13T16:19:04.727Z,15.07
2017-12-13T16:21:32.151Z,17.95
2017-12-13T16:23:59.586Z,13.95
2017-12-13T16:26:26.994Z,12.32
2017-12-13T16:28:54.419Z,12.90
2017-12-13T16:31:21.853Z,18.35
2017-12-13T16:33:49.258Z,16.48
2017-12-13T16:36:16.679Z,17.58
2017-12-13T16:38:44.115Z,13.40
2017-12-13T16:41:11.535Z,14.05
2017-12-13T16:43:38.955Z,14.68
2017-12-13T16:46:06.392Z,17.08
2017-12-13T16:48:33.807Z,13.52
2017-12-13T16:51:01.214Z,20.08
2017-12-13T16:53:28.644Z,17.00
2017-12-13T16:55:56.059Z,14.65
2017-12-13T16:58:23.470Z,14.50
2017-12-13T17:00:50.916Z,11.63
2017-12-13T17:03:18.326Z,12.40
2017-12-13T17:05:45.747Z,14.50
2017-12-13T17:08:13.174Z,12.70
2017-12-13T17:10:40.587Z,15.88
2017-12-13T17:13:08.016Z,14.60
2017-12-13T17:15:35.433Z,11.88
2017-12-13T17:18:02.838Z,10.27
2017-12-13T17:20:30.275Z,10.80
2017-12-13T17:22:57.691Z,11.00
2017-12-13T17:25:25.102Z,10.32
2017-12-13T17:27:52.537Z,10.38
2017-12-13T17:30:19.952Z,11.82
2017-12-13T17:32:47.362Z,19.00
2017-12-13T17:35:14.793Z,13.75
2017-12-13T17:37:42.204Z,11.48
2017-12-13T17:40:09.631Z,11.35
2017-12-13T17:42:37.060Z,11.25
2017-12-13T17:45:04.474Z,9.95
2017-12-13T17:47:31.895Z,12.05
2017-12-13T17:49:59.335Z,11.18
2017-12-13T17:52:26.767Z,12.30
2017-12-13T17:54:54.187Z,12.07
2017-12-13T17:57:21.613Z,11.43
2017-12-13T17:59:49.047Z,11.82
2017-12-13T18:02:16.475Z,12.90
2017-12-13T18:04:43.904Z,10.40
2017-12-13T18:07:11.323Z,12.80
2017-12-13T18:09:38.740Z,9.32
2017-12-13T18:12:06.172Z,8.98
2017-12-13T18:14:33.596Z,14.25
2017-12-13T18:17:01.026Z,11.18
2017-12-13T18:19:28.483Z,14.98
2017-12-13T18:21:55.879Z,8.25
2017-12-13T18:24:23.303Z,10.23
2017-12-13T18:26:50.718Z,12.77
2017-12-13T18:29:18.159Z,12.80
2017-12-13T18:31:45.558Z,11.70
2017-12-13T18:34:12.975Z,9.85
2017-12-13T18:36:40.398Z,7.62
2017-12-13T18:39:07.810Z,10.80
2017-12-13T18:41:35.226Z,11.43
2017-12-13T18:44:02.649Z,8.25
2017-12-13T18:46:30.103Z,9.82
2017-12-13T18:48:57.514Z,8.68
2017-12-13T18:51:24.999Z,11.02
2017-12-13T18:53:52.420Z,12.05
2017-12-13T18:56:19.826Z,8.32
2017-12-13T18:58:47.254Z,8.10
2017-12-13T19:01:14.666Z,7.55
2017-12-13T19:03:42.088Z,14.50
2017-12-13T19:06:09.522Z,8.95
2017-12-13T19:08:36.931Z,9.30
2017-12-13T19:11:04.347Z,11.23
2017-12-13T19:13:31.779Z,9.00
2017-12-13T19:15:59.196Z,10.02
2017-12-13T19:18:26.649Z,6.95
2017-12-13T19:20:54.114Z,6.75
2017-12-13T19:23:21.589Z,14.80
2017-12-13T19:25:49.068Z,6.57
2017-12-13T19:28:16.551Z,13.55
2017-12-13T19:30:44.024Z,8.57
2017-12-13T19:33:11.479Z,17.00
2017-12-13T19:35:38.950Z,8.43
2017-12-13T19:38:06.466Z,8.77
2017-12-13T19:40:33.974Z,5.40
2017-12-13T19:43:01.467Z,5.45
2017-12-13T19:45:29.022Z,6.82
2017-12-13T19:47:56.517Z,9.52
2017-12-13T19:50:24.004Z,5.30
2017-12-13T19:52:51.482Z,5.25
2017-12-13T19:55:19.017Z,5.37
2017-12-13T19:57:46.502Z,5.10
2017-12-13T20:00:14.170Z,5.20
2017-12-13T20:02:41.654Z,5.60
2017-12-13T20:05:09.377Z,6.22
2017-12-13T20:07:37.310Z,11.98
2017-12-13T20:10:05.124Z,5.32
2017-12-13T20:12:33.082Z,5.15
2017-12-13T20:15:12.305Z,6.68
2017-12-13T20:17:40.212Z,4.60
2017-12-13T20:20:07.819Z,4.75
2017-12-13T20:22:35.404Z,4.00
2017-12-13T20:25:02.900Z,6.03
2017-12-13T20:27:30.409Z,4.82
2017-12-13T20:29:58.276Z,4.40
2017-12-13T20:32:26.157Z,4.45
2017-12-13T20:34:53.732Z,4.18
2017-12-13T20:37:21.690Z,4.10
2017-12-13T20:39:49.380Z,4.05
2017-12-13T20:42:17.162Z,4.50
2017-12-13T20:44:44.999Z,3.80
2017-12-13T20:47:12.551Z,4.03
2017-12-13T20:49:40.074Z,3.90
2017-12-13T20:52:07.617Z,3.80
2017-12-13T20:54:35.123Z,3.97
2017-12-13T20:57:02.600Z,3.92
2017-12-13T20:59:30.068Z,3.75
2017-12-13T21:01:57.533Z,3.97
2017-12-13T21:04:25.011Z,4.43
2017-12-13T21:06:52.474Z,5.80
2017-12-13T21:09:19.945Z,4.15
2017-12-13T21:11:47.469Z,5.35
2017-12-13T21:14:14.942Z,4.10
2017-12-13T21:16:42.428Z,3.50
2017-12-13T21:19:09.912Z,4.40
2017-12-13T21:21:37.391Z,11.00
2017-12-13T21:24:04.852Z,6.62
2017-12-13T21:26:32.321Z,11.80
2017-12-13T21:28:59.784Z,10.77
2017-12-13T21:31:27.255Z,5.75
2017-12-13T21:33:54.713Z,3.87
2017-12-13T21:36:22.169Z,5.80
2017-12-13T21:38:49.619Z,3.97
2017-12-13T21:41:17.086Z,4.47
2017-12-13T21:43:44.536Z,4.10
2017-12-13T21:46:11.988Z,4.03
2017-12-13T21:48:39.471Z,4.12
2017-12-13T21:51:06.934Z,10.40
2017-12-13T21:53:34.407Z,5.32
2017-12-13T21:56:01.869Z,7.85
2017-12-13T21:58:29.335Z,4.25
2017-12-13T22:00:56.824Z,8.10
2017-12-13T22:03:24.308Z,4.70
2017-12-13T22:05:52.529Z,3.95
2017-12-13T22:08:20.308Z,4.00
2017-12-13T22:10:47.773Z,4.25
2017-12-13T22:13:15.256Z,5.57
2017-12-13T22:15:42.732Z,7.10
2017-12-13T22:18:10.196Z,4.62
2017-12-13T22:20:37.661Z,10.18
2017-12-13T22:23:05.147Z,4.35
2017-12-13T22:25:32.593Z,3.90
2017-12-13T22:28:00.078Z,4.60
2017-12-13T22:30:27.599Z,8.88
2017-12-13T22:32:55.028Z,5.45
2017-12-13T22:35:22.508Z,5.15
2017-12-13T22:37:49.970Z,4.37
2017-12-13T22:40:17.436Z,4.68
2017-12-13T22:42:44.911Z,5.90
2017-12-13T22:45:12.366Z,3.75
2017-12-13T22:47:39.845Z,4.25
2017-12-13T22:50:07.317Z,6.37
2017-12-13T22:52:34.773Z,4.57
2017-12-13T22:55:02.221Z,3.75
2017-12-13T22:57:29.700Z,3.85
2017-12-13T22:59:57.188Z,8.55
2017-12-13T23:02:24.655Z,4.43
2017-12-13T23:04:52.135Z,15.25
2017-12-13T23:07:19.611Z,4.20
2017-12-13T23:09:47.071Z,4.87
2017-12-13T23:12:14.575Z,3.92
2017-12-13T23:14:42.033Z,4.00
2017-12-13T23:17:09.505Z,5.47
2017-12-13T23:19:36.983Z,4.70
2017-12-13T23:22:04.447Z,4.70
2017-12-13T23:24:31.911Z,9.68
2017-12-13T23:26:59.377Z,6.22
2017-12-13T23:29:26.829Z,4.50
2017-12-13T23:31:54.291Z,4.78
2017-12-13T23:34:21.749Z,6.12
2017-12-13T23:36:49.198Z,4.40
2017-12-13T23:39:16.659Z,4.47
2017-12-13T23:41:44.113Z,4.60
2017-12-13T23:44:11.559Z,9.52
2017-12-13T23:46:39.000Z,5.15
2017-12-13T23:49:06.482Z,14.93
2017-12-13T23:51:33.929Z,7.28
2017-12-13T23:54:01.399Z,10.88
2017-12-13T23:56:28.879Z,5.18
2017-12-13T23:58:56.326Z,4.50
